createdAt,value
2022-10-28T05:36:56.452Z,67.79
2022-10-28T05:39:22.985Z,68.79
2022-10-28T05:41:49.563Z,68.39
2022-10-28T05:44:16.174Z,68.41
2022-10-28T05:46:42.666Z,67.83
2022-10-28T05:49:09.199Z,67.71
2022-10-28T05:51:35.725Z,67.67
2022-10-28T05:54:02.218Z,67.62
2022-10-28T05:56:28.783Z,67.50
2022-10-28T05:58:55.374Z,67.23
2022-10-28T06:01:21.945Z,67.31
2022-10-28T06:03:48.518Z,66.99
2022-10-28T20:34:49.957Z,58.53
2022-10-28T20:37:16.539Z,58.38
2022-10-28T20:39:43.157Z,58.68
2022-10-28T20:42:09.677Z,58.50
2022-10-28T20:44:36.128Z,58.95
2022-10-28T20:47:02.654Z,59.06
2022-10-28T20:49:29.189Z,58.87
2022-10-28T20:51:55.653Z,59.07
2022-10-28T20:54:22.178Z,58.96
2022-10-28T20:56:48.777Z,58.82
2022-10-28T20:59:15.306Z,59.28
2022-10-28T21:01:42.086Z,59.22
2022-10-28T21:04:10.717Z,59.18
2022-10-28T21:06:38.091Z,58.82
2022-10-28T21:09:08.694Z,58.86
2022-10-28T21:11:35.330Z,59.22
2022-10-28T21:14:02.041Z,59.15
2022-10-28T21:16:29.662Z,59.29
2022-10-28T21:18:56.187Z,59.32
2022-10-28T21:21:23.655Z,58.96
2022-10-28T21:23:50.349Z,59.42
2022-10-28T21:26:17.157Z,59.57
2022-10-28T21:28:43.734Z,59.89
2022-10-28T21:31:12.940Z,60.08
2022-10-28T21:33:40.160Z,59.60
2022-10-28T21:36:12.560Z,59.62
2022-10-28T21:38:39.308Z,59.89
2022-10-28T21:41:16.764Z,59.90
2022-10-28T21:43:45.123Z,59.65
2022-10-28T21:46:11.721Z,59.98
2022-10-28T21:48:39.009Z,59.61
2022-10-28T21:51:11.617Z,60.13
2022-10-28T21:53:41.470Z,60.17
2022-10-28T21:56:15.398Z,59.79
2022-10-28T21:58:43.121Z,60.08
2022-10-28T22:01:12.456Z,60.33
2022-10-28T22:03:39.405Z,60.23
2022-10-28T22:06:06.376Z,60.08
2022-10-28T22:08:33.362Z,60.02
2022-10-28T22:11:15.110Z,60.25
2022-10-28T22:13:41.730Z,60.60
2022-10-28T22:16:11.421Z,60.33
2022-10-28T22:18:38.507Z,60.43
2022-10-28T22:21:11.694Z,60.60
2022-10-28T22:23:38.991Z,60.44
2022-10-28T22:26:10.835Z,60.80
2022-10-28T22:28:37.707Z,60.85
2022-10-28T22:31:09.120Z,60.73
2022-10-28T22:33:36.215Z,61.42
2022-10-28T22:36:05.423Z,60.98
2022-10-28T22:38:32.065Z,61.03
2022-10-28T22:41:07.684Z,61.47
2022-10-28T22:43:34.286Z,61.13
2022-10-28T22:46:01.472Z,60.88
2022-10-28T22:48:28.356Z,60.93
2022-10-28T22:50:55.063Z,60.93
2022-10-28T22:53:21.894Z,60.87
2022-10-28T22:55:49.031Z,60.80
2022-10-28T22:58:16.282Z,60.94
2022-10-28T23:00:43.096Z,61.12
2022-10-28T23:03:09.636Z,61.30
2022-10-28T23:05:36.113Z,61.07
2022-10-28T23:08:02.622Z,61.40
2022-10-28T23:10:29.615Z,61.42
2022-10-28T23:12:57.384Z,61.38
2022-10-28T23:15:24.427Z,61.65
2022-10-28T23:17:51.587Z,61.19
2022-10-28T23:20:19.567Z,61.42
2022-10-28T23:22:46.560Z,61.57
2022-10-28T23:25:13.380Z,61.48
2022-10-28T23:27:40.706Z,61.43
2022-10-28T23:30:09.072Z,61.71
2022-10-28T23:32:35.556Z,61.97
2022-10-28T23:35:02.231Z,62.24
2022-10-28T23:37:28.732Z,61.96
2022-10-28T23:39:55.213Z,61.78
2022-10-28T23:42:21.757Z,61.69
2022-10-28T23:44:48.397Z,61.64
2022-10-28T23:47:14.956Z,61.75
2022-10-28T23:49:41.415Z,61.99
2022-10-28T23:52:07.964Z,61.91
2022-10-28T23:54:34.433Z,61.94
2022-10-28T23:57:00.911Z,62.17
2022-10-28T23:59:27.372Z,61.99
